Time;durP1;ratioP1;P1;durP2;ratioP2;P2;SDS_P1;SDS_P2;PMS_P1;PMS_P2;Temp;Humidity;BMP_temperature;BMP_pressure;BME280_temperature;BME280_humidity;BME280_pressure;Samples;Min_cycle;Max_cycle;Signal;HPM_P1;HPM_P2
2022/03/17 00:01:27;;;;;;;35.40;22.00;;;;;;;7.47;91.60;96180.25;6298700;22;20013;-62
2022/03/17 00:03:52;;;;;;;31.00;19.52;;;;;;;7.45;91.63;96185.59;6298672;22;19995;-62
2022/03/17 00:06:17;;;;;;;29.58;16.45;;;;;;;7.43;92.09;96190.94;6298726;22;20042;-62
2022/03/17 00:08:43;;;;;;;35.67;18.13;;;;;;;7.39;92.38;96192.09;6298194;22;19995;-62
2022/03/17 00:11:08;;;;;;;53.70;25.05;;;;;;;7.40;92.05;96185.09;6298385;22;20023;-62
2022/03/17 00:13:34;;;;;;;59.20;25.95;;;;;;;7.40;91.40;96188.53;6299173;22;20082;-62
2022/03/17 00:15:59;;;;;;;59.92;27.75;;;;;;;7.42;91.87;96181.41;6298607;22;20079;-62
2022/03/17 00:18:25;;;;;;;56.40;25.60;;;;;;;7.42;91.28;96185.81;6298864;22;20003;-62
2022/03/17 00:20:50;;;;;;;46.75;25.50;;;;;;;7.38;91.51;96190.41;6298177;22;20375;-62
2022/03/17 00:23:16;;;;;;;44.83;24.10;;;;;;;7.34;91.33;96183.72;6298537;22;20036;-62
2022/03/17 00:25:41;;;;;;;43.15;21.73;;;;;;;7.30;91.68;96185.75;6299003;22;20011;-62
2022/03/17 00:28:07;;;;;;;41.53;20.55;;;;;;;7.27;91.69;96187.75;6299056;22;20004;-62
2022/03/17 00:30:32;;;;;;;45.72;21.95;;;;;;;7.27;91.71;96192.97;6298438;22;20003;-62
2022/03/17 00:32:57;;;;;;;48.25;23.48;;;;;;;7.27;91.44;96198.22;6271127;22;20015;-62
2022/03/17 00:35:35;;;;;;;46.35;23.73;;;;;;;7.25;91.46;96194.88;6298955;22;20361;-62
2022/03/17 00:38:02;;;;;;;43.45;22.73;;;;;;;7.26;91.20;96197.38;6298729;22;20006;-62
2022/03/17 00:40:28;;;;;;;36.97;19.40;;;;;;;7.23;91.32;96199.38;6298829;22;20003;-62
2022/03/17 00:42:55;;;;;;;32.78;19.85;;;;;;;7.19;92.72;96204.00;6298934;22;19999;-62
2022/03/17 00:45:24;;;;;;;34.35;20.20;;;;;;;7.17;92.13;96195.41;6298693;22;20466;-61
2022/03/17 00:47:49;;;;;;;36.40;20.65;;;;;;;7.16;92.22;96205.03;6298426;22;20003;-62
2022/03/17 00:50:14;;;;;;;33.45;20.45;;;;;;;7.19;91.87;96204.00;6298779;22;20006;-62
2022/03/17 00:52:40;;;;;;;34.97;19.88;;;;;;;7.23;91.39;96209.88;6298648;22;20003;-62
2022/03/17 00:55:06;;;;;;;31.63;19.60;;;;;;;7.22;91.64;96206.41;6298916;22;20007;-62
2022/03/17 00:57:33;;;;;;;32.72;18.52;;;;;;;7.19;91.30;96200.56;6298679;22;20003;-62
2022/03/17 00:59:58;;;;;;;33.25;19.67;;;;;;;7.15;91.44;96213.03;6298777;22;20003;-61
2022/03/17 01:02:24;;;;;;;35.28;18.02;;;;;;;7.13;91.17;96210.50;6298798;22;20011;-62
2022/03/17 01:04:49;;;;;;;28.85;17.33;;;;;;;7.12;91.64;96211.44;6298793;22;20590;-62
2022/03/17 01:07:14;;;;;;;28.45;16.80;;;;;;;7.10;92.60;96208.09;6298835;22;19999;-62
2022/03/17 01:09:40;;;;;;;26.95;16.00;;;;;;;7.09;92.43;96211.66;6298478;22;20086;-62
2022/03/17 01:12:05;;;;;;;28.40;16.20;;;;;;;7.10;92.15;96202.03;6298403;22;20015;-62
2022/03/17 01:14:31;;;;;;;32.30;16.15;;;;;;;7.06;92.05;96209.25;6298645;22;20424;-62
2022/03/17 01:16:56;;;;;;;26.90;16.08;;;;;;;7.05;91.41;96207.59;6298583;22;19999;-62
2022/03/17 01:19:22;;;;;;;29.55;16.65;;;;;;;7.04;91.83;96203.31;6298674;22;19999;-62
2022/03/17 01:21:49;;;;;;;29.52;17.67;;;;;;;7.00;92.29;96201.84;6298718;22;20012;-62
2022/03/17 01:24:15;;;;;;;35.05;16.83;;;;;;;6.95;92.02;96202.16;6298698;22;20024;-62
2022/03/17 01:26:40;;;;;;;20.58;13.18;;;;;;;6.96;92.21;96200.34;6298549;22;20003;-62
2022/03/17 01:29:06;;;;;;;20.33;15.70;;;;;;;6.91;92.47;96200.69;6298618;22;20003;-62
2022/03/17 01:31:31;;;;;;;20.77;13.63;;;;;;;6.84;93.58;96202.91;6298261;22;20011;-61
2022/03/17 01:33:58;;;;;;;16.75;11.93;;;;;;;6.73;93.81;96200.19;6298682;22;20082;-62
2022/03/17 01:36:24;;;;;;;13.20;10.13;;;;;;;6.76;93.95;96205.22;6298377;22;20003;-61
2022/03/17 01:38:49;;;;;;;16.73;12.30;;;;;;;6.75;94.13;96195.69;6298191;22;20004;-62
2022/03/17 01:41:14;;;;;;;20.60;11.02;;;;;;;6.76;94.58;96194.75;6298290;22;20452;-62
2022/03/17 01:43:40;;;;;;;17.90;10.73;;;;;;;6.80;94.33;96193.59;6298565;22;20022;-62
2022/03/17 01:46:05;;;;;;;17.77;11.20;;;;;;;6.86;93.27;96194.97;6298542;22;20093;-61
2022/03/17 01:48:31;;;;;;;16.10;11.15;;;;;;;6.82;94.03;96196.94;6298530;22;20010;-62
2022/03/17 01:50:56;;;;;;;17.75;11.30;;;;;;;6.82;93.70;96198.69;6296434;22;20067;-62
2022/03/17 01:53:22;;;;;;;13.18;10.02;;;;;;;6.83;94.23;96198.59;6297033;22;20027;-62
2022/03/17 01:55:48;;;;;;;12.73;9.80;;;;;;;6.77;94.60;96185.97;6298170;22;20001;-62
2022/03/17 01:58:14;;;;;;;13.93;9.93;;;;;;;6.77;94.75;96187.72;6298416;22;20007;-62
2022/03/17 02:00:40;;;;;;;17.75;9.77;;;;;;;6.78;94.31;96181.53;6297414;22;20583;-61
2022/03/17 02:03:06;;;;;;;15.13;9.20;;;;;;;6.80;94.09;96182.28;6298779;22;20443;-62
2022/03/17 02:05:34;;;;;;;17.00;10.48;;;;;;;6.85;94.07;96183.63;6270969;22;20097;-60
2022/03/17 02:08:00;;;;;;;14.05;9.77;;;;;;;6.89;93.97;96184.28;6298407;22;20492;-60
2022/03/17 02:10:26;;;;;;;16.13;9.73;;;;;;;6.91;93.61;96181.53;6298015;22;20007;-60
2022/03/17 02:13:10;;;;;;;15.05;9.95;;;;;;;6.92;93.29;96177.97;6298406;22;20023;-60
2022/03/17 02:15:36;;;;;;;15.02;9.25;;;;;;;6.95;93.21;96175.13;6298144;22;20060;-60
2022/03/17 02:18:06;;;;;;;15.73;8.60;;;;;;;6.95;93.37;96173.34;6297801;22;20479;-60
2022/03/17 02:20:33;;;;;;;11.07;9.18;;;;;;;6.95;93.53;96168.13;6298095;22;20010;-60
2022/03/17 02:25:59;;;;;;;12.30;8.27;;;;;;;6.95;93.50;96177.75;6297789;22;20029;-60
2022/03/17 02:28:26;;;;;;;18.02;8.63;;;;;;;6.94;94.25;96170.84;6298272;22;20010;-60
2022/03/17 02:30:52;;;;;;;12.23;8.63;;;;;;;6.91;93.38;96166.66;6270770;22;20031;-62
2022/03/17 02:33:18;;;;;;;16.17;9.40;;;;;;;6.84;93.75;96165.41;6299440;22;20430;-60
2022/03/17 02:35:45;;;;;;;12.48;8.50;;;;;;;6.80;94.79;96167.41;6271815;22;20193;-60
2022/03/17 02:38:14;;;;;;;11.15;7.95;;;;;;;6.82;94.27;96164.69;6299639;22;20010;-60
2022/03/17 02:40:43;;;;;;;10.25;7.57;;;;;;;6.77;94.94;96159.78;6299510;22;20011;-60
2022/03/17 02:43:09;;;;;;;11.25;7.80;;;;;;;6.80;94.17;96162.19;6299719;22;20488;-59
2022/03/17 02:45:36;;;;;;;11.35;7.28;;;;;;;6.79;94.22;96165.75;6299422;22;20012;-60
2022/03/17 02:48:03;;;;;;;11.20;7.25;;;;;;;6.80;93.98;96166.56;6299670;22;20473;-60
2022/03/17 02:50:28;;;;;;;14.93;8.43;;;;;;;6.80;94.61;96170.03;6299661;22;20007;-60
2022/03/17 02:52:54;;;;;;;16.52;7.40;;;;;;;6.80;94.06;96170.03;6300726;22;20003;-60
2022/03/17 02:55:19;;;;;;;15.23;12.25;;;;;;;6.82;93.72;96168.16;6301099;22;20023;-60
2022/03/17 02:57:45;;;;;;;18.75;14.35;;;;;;;6.85;93.79;96172.31;6301145;22;20000;-60
2022/03/17 03:00:12;;;;;;;25.83;21.20;;;;;;;6.83;94.15;96168.97;6300943;22;20008;-60
2022/03/17 03:02:38;;;;;;;24.20;21.08;;;;;;;6.79;93.78;96172.75;6301107;22;20129;-60
2022/03/17 03:05:04;;;;;;;23.17;18.80;;;;;;;6.77;94.22;96165.03;6300932;22;20119;-60
2022/03/17 03:07:30;;;;;;;15.77;13.00;;;;;;;6.71;94.84;96175.91;6301024;22;20075;-60
2022/03/17 03:09:55;;;;;;;17.27;11.48;;;;;;;6.66;95.09;96172.75;6273782;22;20027;-60
2022/03/17 03:12:21;;;;;;;20.65;12.27;;;;;;;6.64;95.37;96180.75;6300797;22;20454;-60
2022/03/17 03:14:47;;;;;;;17.45;11.77;;;;;;;6.62;95.80;96176.53;6300879;22;20379;-60
2022/03/17 03:17:13;;;;;;;24.58;18.13;;;;;;;6.64;94.87;96183.34;6300723;22;20607;-60
2022/03/17 03:19:38;;;;;;;23.30;17.10;;;;;;;6.65;95.26;96181.56;6300942;22;20011;-60
2022/03/17 03:22:04;;;;;;;16.05;9.88;;;;;;;6.66;94.83;96184.09;6300665;22;20011;-60
2022/03/17 03:24:29;;;;;;;11.85;9.00;;;;;;;6.67;95.27;96185.75;6300909;22;20387;-60
2022/03/17 03:26:54;;;;;;;11.95;8.70;;;;;;;6.67;95.28;96187.53;6300730;22;20003;-60
2022/03/17 03:29:23;;;;;;;15.38;9.02;;;;;;;6.69;95.13;96188.25;6300996;22;20010;-60
2022/03/17 03:31:51;;;;;;;14.48;9.07;;;;;;;6.66;95.33;96178.00;6301098;22;20060;-60
2022/03/17 03:34:16;;;;;;;9.10;7.07;;;;;;;6.66;95.83;96188.47;6300896;22;20003;-60
2022/03/17 03:39:26;;;;;;;22.48;15.20;;;;;;;6.64;95.79;96185.97;6300609;22;20017;-60
2022/03/17 03:41:51;;;;;;;23.25;16.02;;;;;;;6.63;95.46;96184.28;6300437;22;20334;-60
2022/03/17 03:44:17;;;;;;;16.67;11.48;;;;;;;6.61;95.63;96185.34;6300405;22;20343;-60
2022/03/17 03:46:42;;;;;;;18.80;14.80;;;;;;;6.58;95.21;96191.59;6300938;22;19999;-60
2022/03/17 03:49:08;;;;;;;26.33;13.25;;;;;;;6.57;94.91;96192.53;6300780;22;20011;-60
2022/03/17 03:51:33;;;;;;;12.25;10.15;;;;;;;6.52;95.33;96200.72;6300805;22;20009;-60
2022/03/17 03:54:17;;;;;;;11.00;7.40;;;;;;;6.52;94.48;96195.50;6300763;22;20736;-60
2022/03/17 03:56:45;;;;;;;9.10;8.20;;;;;;;6.42;96.07;96195.28;6300526;22;20004;-60
2022/03/17 03:59:17;;;;;;;10.73;7.25;;;;;;;6.37;96.27;96204.38;6300610;22;20064;-60
2022/03/17 04:01:43;;;;;;;10.43;6.53;;;;;;;6.32;96.93;96191.59;6273523;22;20007;-60
2022/03/17 04:04:09;;;;;;;12.15;7.13;;;;;;;6.32;96.67;96196.81;6300845;22;20007;-60
2022/03/17 04:06:41;;;;;;;11.65;6.53;;;;;;;6.29;97.25;96191.81;6300546;22;20079;-60
2022/03/17 04:09:07;;;;;;;8.43;6.40;;;;;;;6.25;96.49;96190.34;6300668;22;20027;-62
2022/03/17 04:11:32;;;;;;;9.60;6.32;;;;;;;6.22;96.66;96195.78;6300503;22;20022;-60
2022/03/17 04:13:57;;;;;;;12.45;6.70;;;;;;;6.11;97.42;96193.88;6300616;22;20466;-60
2022/03/17 04:16:23;;;;;;;8.23;5.82;;;;;;;6.06;97.16;96198.56;6300778;22;20074;-60
2022/03/17 04:18:48;;;;;;;11.20;6.80;;;;;;;6.06;97.32;96198.56;6300578;22;20007;-60
2022/03/17 04:21:13;;;;;;;11.70;6.53;;;;;;;6.07;96.78;96198.47;6300546;22;19999;-60
2022/03/17 04:23:39;;;;;;;9.40;6.93;;;;;;;6.08;96.89;96194.91;6300757;22;20006;-60
2022/03/17 04:26:04;;;;;;;15.85;6.63;;;;;;;6.08;96.62;96194.91;6300619;22;20009;-60
2022/03/17 04:28:29;;;;;;;10.80;7.38;;;;;;;6.11;96.59;96194.69;6300710;22;20454;-60
2022/03/17 04:30:55;;;;;;;12.20;7.22;;;;;;;6.11;97.04;96193.88;6299868;22;20004;-60
2022/03/17 04:33:20;;;;;;;8.80;6.85;;;;;;;6.10;96.61;96192.22;6300362;22;20100;-60
2022/03/17 04:35:46;;;;;;;8.80;6.68;;;;;;;6.07;96.92;96198.47;6299648;22;19999;-60
2022/03/17 04:38:11;;;;;;;13.77;7.13;;;;;;;6.04;96.72;96198.69;6300332;22;20031;-60
2022/03/17 04:40:36;;;;;;;10.15;6.75;;;;;;;5.99;96.73;96198.13;6300545;22;20022;-60
2022/03/17 04:43:02;;;;;;;9.07;6.85;;;;;;;5.96;96.83;96198.28;6299563;22;20010;-60
2022/03/17 04:45:27;;;;;;;11.55;7.30;;;;;;;5.95;97.38;96197.47;6299712;22;20003;-60
2022/03/17 04:47:52;;;;;;;10.48;7.18;;;;;;;5.95;97.42;96191.38;6298492;22;19995;-60
2022/03/17 04:50:18;;;;;;;10.18;7.03;;;;;;;5.95;97.05;96194.84;6298567;22;20446;-60
2022/03/17 04:55:27;;;;;;;10.52;6.65;;;;;;;5.93;96.59;96194.13;6298496;22;20018;-60
2022/03/17 04:57:52;;;;;;;12.18;6.78;;;;;;;5.92;96.76;96192.44;6298822;22;20003;-60
2022/03/17 05:00:18;;;;;;;10.05;6.72;;;;;;;5.91;96.52;96193.38;6299569;22;20003;-60
2022/03/17 05:02:43;;;;;;;13.82;6.55;;;;;;;5.92;96.62;96197.69;6300512;22;20347;-62
2022/03/17 05:05:09;;;;;;;8.52;6.18;;;;;;;5.90;96.35;96201.31;6300329;22;20007;-59
2022/03/17 05:07:34;;;;;;;6.80;6.15;;;;;;;5.86;96.98;96208.53;6300627;22;20388;-60
2022/03/17 05:09:59;;;;;;;13.18;6.68;;;;;;;5.84;96.60;96205.16;6300332;22;20003;-60
2022/03/17 05:12:25;;;;;;;7.22;5.47;;;;;;;5.84;96.42;96207.78;6299877;22;20026;-62
2022/03/17 05:14:50;;;;;;;8.93;5.75;;;;;;;5.89;96.34;96210.94;6300530;22;20391;-62
2022/03/17 05:17:16;;;;;;;7.32;5.28;;;;;;;5.91;96.40;96209.06;6300436;22;20011;-59
2022/03/17 05:19:41;;;;;;;7.15;5.55;;;;;;;5.89;96.26;96205.72;6300332;22;20059;-60
2022/03/17 05:22:06;;;;;;;9.43;5.38;;;;;;;5.79;97.09;96210.72;6299995;22;20442;-59
2022/03/17 05:24:33;;;;;;;6.60;5.78;;;;;;;5.71;97.61;96203.34;6300317;22;20082;-60
2022/03/17 05:26:59;;;;;;;6.57;5.55;;;;;;;5.61;97.33;96212.72;6300193;22;20014;-59
2022/03/17 05:29:24;;;;;;;12.50;5.70;;;;;;;5.63;96.94;96205.59;6300610;22;20074;-61
2022/03/17 05:31:50;;;;;;;8.13;5.05;;;;;;;5.66;97.23;96208.06;6299293;22;20101;-59
2022/03/17 05:34:15;;;;;;;6.90;5.20;;;;;;;5.69;97.00;96217.44;6300181;22;20007;-60
2022/03/17 05:36:41;;;;;;;7.80;5.32;;;;;;;5.70;97.16;96206.91;6300189;22;20007;-59
2022/03/17 05:39:06;;;;;;;8.20;5.43;;;;;;;5.72;97.20;96215.50;6299537;22;20427;-60
2022/03/17 05:41:32;;;;;;;7.63;6.30;;;;;;;5.74;97.29;96211.00;6300243;22;20074;-59
2022/03/17 05:43:57;;;;;;;8.05;6.10;;;;;;;5.74;97.54;96207.53;6300286;22;20006;-61
2022/03/17 05:46:25;;;;;;;12.13;5.88;;;;;;;5.76;97.21;96216.13;6300070;22;20346;-60
2022/03/17 05:48:51;;;;;;;6.78;5.45;;;;;;;5.74;96.30;96212.75;6299918;22;20043;-61
2022/03/17 05:51:16;;;;;;;8.07;6.05;;;;;;;5.64;97.24;96204.69;6300295;22;20011;-62
2022/03/17 05:53:42;;;;;;;8.13;6.47;;;;;;;5.62;97.14;96200.50;6300022;22;20060;-61
2022/03/17 05:56:08;;;;;;;8.98;5.80;;;;;;;5.63;97.80;96200.38;6299748;22;20007;-61
2022/03/17 05:58:33;;;;;;;12.90;5.57;;;;;;;5.62;97.01;96203.94;6299832;22;20007;-62
2022/03/17 06:00:59;;;;;;;8.52;5.18;;;;;;;5.64;97.34;96204.69;6299935;22;20034;-61
2022/03/17 06:03:25;;;;;;;5.40;4.90;;;;;;;5.67;97.08;96203.66;6300054;22;20010;-61
2022/03/17 06:05:50;;;;;;;6.95;5.95;;;;;;;5.66;97.04;96213.28;6299553;22;20003;-61
2022/03/17 06:08:15;;;;;;;10.13;7.68;;;;;;;5.67;96.92;96217.56;6301038;22;20006;-61
2022/03/17 06:10:41;;;;;;;14.32;6.72;;;;;;;5.67;96.99;96214.94;6300336;22;20103;-61
2022/03/17 06:13:07;;;;;;;13.60;6.57;;;;;;;5.66;96.59;96221.13;6300829;22;20358;-61
2022/03/17 06:15:34;;;;;;;9.73;5.95;;;;;;;5.64;96.68;96215.16;6300789;22;20011;-61
2022/03/17 06:18:00;;;;;;;7.15;5.43;;;;;;;5.61;96.85;96217.13;6300747;22;20008;-61
2022/03/17 06:20:28;;;;;;;6.68;5.95;;;;;;;5.61;97.25;96217.94;6300965;22;20003;-62
2022/03/17 06:22:55;;;;;;;8.23;5.75;;;;;;;5.61;96.89;96217.94;6301228;22;20003;-56
2022/03/17 06:25:23;;;;;;;10.05;5.50;;;;;;;5.64;96.88;96216.91;6273527;22;20007;-57
2022/03/17 06:27:50;;;;;;;9.25;4.93;;;;;;;5.64;96.89;96220.38;6301264;22;20496;-57
2022/03/17 06:30:20;;;;;;;11.45;6.00;;;;;;;5.70;96.60;96229.56;6301113;22;20007;-53
2022/03/17 06:32:46;;;;;;;11.77;6.50;;;;;;;5.77;96.41;96232.63;6301172;22;20007;-59
2022/03/17 06:35:17;;;;;;;9.45;6.28;;;;;;;5.80;96.51;96235.91;6300420;22;20404;-58
2022/03/17 06:37:47;;;;;;;13.15;6.68;;;;;;;5.83;95.63;96238.31;6300854;22;20007;-57
2022/03/17 06:40:13;;;;;;;10.77;6.05;;;;;;;5.93;95.94;96249.00;6273815;22;20439;-57
2022/03/17 06:42:39;;;;;;;7.10;6.00;;;;;;;6.04;95.53;96252.72;6301193;22;20008;-56
2022/03/17 06:45:05;;;;;;;9.70;5.97;;;;;;;6.12;95.09;96248.66;6300481;22;20003;-56
2022/03/17 06:47:30;;;;;;;7.63;5.68;;;;;;;6.12;95.12;96253.91;6300494;22;20023;-52
2022/03/17 06:49:55;;;;;;;13.13;6.13;;;;;;;6.21;94.65;96262.09;6300466;22;20067;-57
2022/03/17 06:52:22;;;;;;;13.13;5.75;;;;;;;6.28;94.56;96258.94;6300867;22;20007;-56
2022/03/17 06:54:48;;;;;;;12.32;6.32;;;;;;;6.41;93.60;96266.00;6300981;22;20320;-57
2022/03/17 06:57:18;;;;;;;9.18;5.88;;;;;;;6.43;94.48;96266.72;6300801;22;20154;-58
2022/03/17 06:59:44;;;;;;;11.27;6.05;;;;;;;6.53;94.67;96262.56;6301056;22;20010;-54
2022/03/17 07:02:09;;;;;;;8.95;6.15;;;;;;;6.65;93.51;96266.13;6300487;22;20074;-58
2022/03/17 07:04:34;;;;;;;7.35;6.03;;;;;;;6.81;92.53;96267.69;6273496;22;20014;-55
2022/03/17 07:07:00;;;;;;;14.02;10.35;;;;;;;6.94;91.91;96270.31;6300816;22;20079;-58
2022/03/17 07:09:25;;;;;;;11.13;8.35;;;;;;;7.09;90.91;96269.25;6300964;22;20015;-58
2022/03/17 07:11:50;;;;;;;13.05;6.88;;;;;;;7.19;90.47;96272.09;6300450;22;20511;-57
2022/03/17 07:14:16;;;;;;;11.75;5.90;;;;;;;7.29;90.13;96267.91;6300817;22;20399;-59
2022/03/17 07:16:41;;;;;;;15.63;6.43;;;;;;;7.29;90.28;96273.13;6300552;22;20045;-58
2022/03/17 07:19:07;;;;;;;7.38;5.43;;;;;;;7.29;90.74;96275.75;6300735;22;20000;-57
2022/03/17 07:21:33;;;;;;;11.32;6.32;;;;;;;7.28;91.07;96278.47;6300926;22;20007;-57
2022/03/17 07:23:59;;;;;;;8.55;5.18;;;;;;;7.39;90.10;96282.97;6300764;22;20095;-58
2022/03/17 07:26:24;;;;;;;7.35;5.60;;;;;;;7.60;88.89;96278.81;6300604;22;20027;-57
2022/03/17 07:28:49;;;;;;;7.18;4.60;;;;;;;7.63;88.63;96282.16;6300379;22;20011;-56
2022/03/17 07:31:15;;;;;;;8.05;5.53;;;;;;;7.76;88.62;96284.75;6300649;22;20007;-57
2022/03/17 07:33:42;;;;;;;8.77;5.05;;;;;;;7.92;87.09;96287.09;6300565;22;20423;-54
2022/03/17 07:36:07;;;;;;;11.63;7.25;;;;;;;8.24;85.25;96292.63;6300236;22;20033;-55
2022/03/17 07:38:33;;;;;;;13.55;9.25;;;;;;;8.12;86.43;96294.34;6300679;22;20455;-57
2022/03/17 07:40:58;;;;;;;20.30;9.88;;;;;;;8.08;86.33;96295.53;6300499;22;20007;-58
2022/03/17 07:43:25;;;;;;;15.15;8.65;;;;;;;8.15;87.11;96299.38;6300968;22;20007;-56
2022/03/17 07:45:53;;;;;;;12.73;8.75;;;;;;;8.23;87.22;96303.25;6300451;22;20461;-58
2022/03/17 07:48:19;;;;;;;10.48;7.90;;;;;;;8.31;87.35;96301.72;6300560;22;20011;-57
2022/03/17 07:50:44;;;;;;;15.40;7.38;;;;;;;8.45;86.23;96305.09;6299988;22;19999;-60
2022/03/17 07:53:09;;;;;;;19.42;8.27;;;;;;;8.59;85.33;96306.72;6300002;22;20070;-60
2022/03/17 07:55:36;;;;;;;13.07;7.13;;;;;;;8.64;86.36;96309.03;6300003;22;20007;-58
2022/03/17 07:58:01;;;;;;;8.00;6.43;;;;;;;8.68;86.15;96313.09;6300015;22;20000;-59
2022/03/17 08:00:27;;;;;;;9.63;7.45;;;;;;;8.74;86.13;96310.84;6300265;22;20003;-58
2022/03/17 08:02:54;;;;;;;11.77;7.97;;;;;;;8.77;85.86;96314.19;6300534;22;20041;-53
2022/03/17 08:05:19;;;;;;;12.35;7.38;;;;;;;8.83;86.00;96324.22;6300550;22;19999;-58
2022/03/17 08:07:45;;;;;;;13.80;7.53;;;;;;;8.88;85.47;96322.94;6300186;22;20011;-59
2022/03/17 08:10:11;;;;;;;11.38;6.78;;;;;;;9.15;84.23;96327.03;6300294;22;20003;-59
2022/03/17 08:12:36;;;;;;;12.40;6.55;;;;;;;9.25;83.05;96318.47;6300418;22;20019;-57
2022/03/17 08:15:05;;;;;;;10.05;5.82;;;;;;;9.38;81.50;96316.53;6300735;22;20443;-59
2022/03/17 08:17:30;;;;;;;8.55;6.47;;;;;;;9.21;83.85;96332.78;6300821;22;20043;-58
2022/03/17 08:19:57;;;;;;;10.15;6.60;;;;;;;9.48;82.05;96329.78;6300562;22;20003;-57
2022/03/17 08:22:23;;;;;;;8.75;6.82;;;;;;;9.46;82.27;96335.19;6300768;22;20003;-59
2022/03/17 08:24:48;;;;;;;13.23;7.22;;;;;;;9.52;82.21;96331.25;6300542;22;20007;-59
2022/03/17 08:27:13;;;;;;;21.25;8.95;;;;;;;9.65;81.62;96336.38;6300963;22;20395;-57
2022/03/17 08:29:40;;;;;;;12.75;7.15;;;;;;;9.60;82.11;96338.53;6300094;22;20003;-56
2022/03/17 08:32:06;;;;;;;9.77;7.57;;;;;;;9.86;80.04;96341.72;6300484;22;20132;-59
2022/03/17 08:34:32;;;;;;;10.55;8.68;;;;;;;9.81;80.08;96348.31;6300289;22;20003;-59
2022/03/17 08:36:59;;;;;;;17.20;10.30;;;;;;;10.02;79.28;96349.25;6300554;22;19999;-58
2022/03/17 08:39:25;;;;;;;13.30;8.48;;;;;;;9.88;79.97;96346.88;6300555;22;20007;-56
2022/03/17 08:41:52;;;;;;;16.05;8.13;;;;;;;9.94;80.95;96351.66;6300771;22;20007;-58
2022/03/17 08:44:18;;;;;;;13.15;8.57;;;;;;;10.27;77.81;96354.34;6300558;22;20009;-58
2022/03/17 08:49:27;;;;;;;11.45;8.57;;;;;;;10.39;77.42;96355.16;6300735;22;20042;-57
2022/03/17 08:51:56;;;;;;;16.67;8.27;;;;;;;10.60;76.10;96361.31;6300371;22;20003;-60
2022/03/17 08:54:23;;;;;;;16.80;8.55;;;;;;;10.57;76.66;96353.69;6300299;22;20060;-60
2022/03/17 08:56:50;;;;;;;11.32;9.23;;;;;;;10.57;77.07;96353.69;6300522;22;20019;-58
2022/03/17 08:59:15;;;;;;;13.75;8.43;;;;;;;10.60;76.83;96352.56;6300372;22;20003;-57
2022/03/17 09:01:41;;;;;;;13.80;8.70;;;;;;;10.79;75.94;96359.81;6300425;22;20006;-59
2022/03/17 09:04:07;;;;;;;16.73;8.77;;;;;;;11.20;73.74;96359.94;6300327;22;20003;-59
2022/03/17 09:06:32;;;;;;;14.40;9.18;;;;;;;10.86;75.27;96353.06;6300410;22;20445;-59
2022/03/17 09:08:57;;;;;;;13.63;8.40;;;;;;;10.90;75.93;96353.66;6300351;22;20023;-58
2022/03/17 09:11:23;;;;;;;12.25;8.30;;;;;;;10.75;76.27;96358.41;6300288;22;20090;-59
2022/03/17 09:13:49;;;;;;;12.45;8.63;;;;;;;11.06;74.68;96358.47;6300418;22;20427;-59
2022/03/17 09:16:16;;;;;;;18.42;9.88;;;;;;;11.05;74.62;96364.72;6300378;22;19999;-58
2022/03/17 09:18:42;;;;;;;12.73;9.15;;;;;;;11.17;74.59;96363.69;6300451;22;20000;-59
2022/03/17 09:21:08;;;;;;;16.63;9.95;;;;;;;11.30;72.17;96360.84;6300266;22;20007;-59
2022/03/17 09:23:34;;;;;;;18.27;9.40;;;;;;;11.17;74.29;96361.06;6300509;22;20124;-59
2022/03/17 09:25:59;;;;;;;11.70;8.73;;;;;;;11.34;73.59;96363.22;6300116;22;20094;-59
2022/03/17 09:28:26;;;;;;;18.35;9.73;;;;;;;11.61;71.85;96362.69;6300409;22;20438;-58
2022/03/17 09:30:52;;;;;;;11.50;7.93;;;;;;;11.54;72.04;96366.78;6300231;22;20031;-59
2022/03/17 09:33:18;;;;;;;14.18;8.43;;;;;;;11.65;71.55;96361.44;6300261;22;20052;-59
2022/03/17 09:35:44;;;;;;;20.70;10.55;;;;;;;11.78;71.47;96357.72;6300286;22;20027;-59
2022/03/17 09:38:10;;;;;;;14.30;9.77;;;;;;;11.93;71.11;96360.81;6300181;22;20446;-58
2022/03/17 09:40:36;;;;;;;14.00;8.70;;;;;;;11.98;70.91;96348.91;6300009;22;20435;-59
2022/03/17 09:43:18;;;;;;;13.73;8.65;;;;;;;11.96;70.44;96356.13;6299482;22;20349;-59
2022/03/17 09:45:45;;;;;;;14.38;8.00;;;;;;;11.90;70.61;96356.66;6300298;22;20593;-59
2022/03/17 09:48:13;;;;;;;15.45;7.70;;;;;;;12.37;68.01;96352.63;6300457;22;20124;-59
2022/03/17 09:50:40;;;;;;;9.20;7.95;;;;;;;12.09;68.05;96358.56;6300151;22;20026;-57
2022/03/17 09:53:06;;;;;;;18.80;7.40;;;;;;;12.08;69.88;96358.69;6300085;22;20032;-57
2022/03/17 09:55:33;;;;;;;11.02;8.10;;;;;;;12.08;70.90;96356.06;6300214;22;20011;-57
2022/03/17 09:57:59;;;;;;;16.10;8.63;;;;;;;12.20;71.31;96362.06;6299971;22;20052;-59
2022/03/17 10:00:47;;;;;;;12.00;8.73;;;;;;;12.28;69.62;96360.41;6300009;22;20007;-58
2022/03/17 10:03:10;;;;;;;12.77;8.27;;;;;;;12.64;69.60;96357.25;6299811;22;20046;-58
2022/03/17 10:05:36;;;;;;;12.23;8.23;;;;;;;12.72;68.61;96357.38;6300183;22;20451;-59
2022/03/17 10:08:02;;;;;;;10.48;8.25;;;;;;;12.95;68.89;96365.03;6299869;22;20522;-59
2022/03/17 10:10:41;;;;;;;10.40;8.48;;;;;;;13.28;66.85;96357.63;6299588;22;20098;-59
2022/03/17 10:13:21;;;;;;;14.73;8.65;;;;;;;13.44;65.64;96359.69;6299735;22;20004;-59
2022/03/17 10:16:04;;;;;;;10.55;8.38;;;;;;;13.90;65.38;96356.31;6300032;22;20465;-59
2022/03/17 10:18:30;;;;;;;15.57;9.48;;;;;;;13.90;63.05;96354.50;6299800;22;20014;-59
2022/03/17 10:21:16;;;;;;;15.77;9.05;;;;;;;14.06;62.08;96362.81;6299779;22;20102;-60
2022/03/17 10:23:44;;;;;;;17.00;8.27;;;;;;;14.36;63.34;96353.69;6299868;22;20000;-59
2022/03/17 10:26:10;;;;;;;15.35;9.25;;;;;;;14.56;63.22;96357.06;6299677;22;20385;-58
2022/03/17 10:28:37;;;;;;;10.80;9.50;;;;;;;14.58;61.04;96355.09;6299986;22;20000;-57
2022/03/17 10:31:04;;;;;;;17.55;9.27;;;;;;;14.57;61.64;96355.22;6299508;22;20007;-59
2022/03/17 10:33:29;;;;;;;15.75;9.48;;;;;;;14.77;62.17;96352.47;6299727;22;20018;-59
2022/03/17 10:36:15;;;;;;;11.43;9.13;;;;;;;14.76;62.19;96346.34;6299513;22;19995;-58
2022/03/17 10:38:42;;;;;;;13.65;10.15;;;;;;;14.92;61.69;96344.78;6300079;22;20000;-57
2022/03/17 10:41:11;;;;;;;13.98;9.65;;;;;;;14.75;60.45;96344.69;6299359;22;20074;-60
2022/03/17 10:43:42;;;;;;;16.27;9.63;;;;;;;14.83;60.14;96342.09;6299741;22;20052;-58
2022/03/17 10:46:07;;;;;;;11.00;9.02;;;;;;;14.85;60.93;96342.75;6299528;22;20011;-57
2022/03/17 10:48:33;;;;;;;14.02;10.10;;;;;;;15.13;60.76;96342.63;6299806;22;20007;-59
2022/03/17 10:50:58;;;;;;;11.38;9.85;;;;;;;15.04;59.81;96338.28;6299489;22;19999;-57
2022/03/17 10:53:28;;;;;;;13.52;8.98;;;;;;;15.12;59.15;96340.97;6300627;22;20324;-57
2022/03/17 10:56:09;;;;;;;14.57;9.68;;;;;;;15.37;58.65;96335.03;6301066;22;19996;-57
2022/03/17 10:58:43;;;;;;;13.13;8.57;;;;;;;15.51;58.50;96337.09;6301424;22;20000;-59
2022/03/17 11:01:09;;;;;;;17.77;9.35;;;;;;;15.45;58.36;96330.59;6300780;22;20005;-59
2022/03/17 11:03:34;;;;;;;14.60;9.20;;;;;;;15.64;59.36;96335.81;6301267;22;20003;-60
2022/03/17 11:06:00;;;;;;;12.85;8.50;;;;;;;15.88;57.26;96337.78;6300961;22;19995;-59
2022/03/17 11:08:27;;;;;;;9.57;8.07;;;;;;;15.96;57.66;96329.06;6301086;22;20082;-59
2022/03/17 11:10:52;;;;;;;14.23;8.55;;;;;;;15.95;56.69;96332.69;6300655;22;20439;-59
2022/03/17 11:13:18;;;;;;;13.23;8.98;;;;;;;16.24;56.25;96326.97;6300917;22;20029;-58
2022/03/17 11:15:48;;;;;;;13.27;9.10;;;;;;;16.35;55.80;96323.16;6300938;22;20004;-59
2022/03/17 11:18:18;;;;;;;18.98;11.57;;;;;;;16.26;55.11;96325.00;6301181;22;20004;-59
2022/03/17 11:20:45;;;;;;;12.57;9.50;;;;;;;16.25;56.00;96325.16;6301048;22;20003;-59
2022/03/17 11:23:23;;;;;;;15.65;9.80;;;;;;;16.50;55.47;96318.06;6273397;22;20003;-59
2022/03/17 11:25:53;;;;;;;17.52;11.05;;;;;;;16.58;54.26;96322.56;6300963;22;20004;-59
2022/03/17 11:28:33;;;;;;;15.45;11.00;;;;;;;16.61;54.13;96317.75;6301052;22;20004;-57
2022/03/17 11:31:01;;;;;;;13.07;9.75;;;;;;;16.63;53.65;96314.94;6300686;22;20006;-59
2022/03/17 11:33:30;;;;;;;13.25;9.70;;;;;;;16.71;52.72;96317.59;6300946;22;19999;-59
2022/03/17 11:36:09;;;;;;;12.23;9.88;;;;;;;16.43;53.63;96314.38;6300752;22;20082;-59
2022/03/17 11:38:38;;;;;;;13.40;8.18;;;;;;;16.21;54.41;96319.31;6300997;22;20056;-59
2022/03/17 11:41:17;;;;;;;12.93;9.55;;;;;;;15.96;53.99;96315.78;6300859;22;20003;-59